Time;durP1;ratioP1;P1;durP2;ratioP2;P2;SDS_P1;SDS_P2;PMS_P1;PMS_P2;Temp;Humidity;BMP_temperature;BMP_pressure;BME280_temperature;BME280_humidity;BME280_pressure;Samples;Min_cycle;Max_cycle;Signal;HPM_P1;HPM_P2
2023/11/16 00:00:06;;;;;;;0.60;0.60;;;;;;;7.57;48.08;92752.84;4938111;29;20039;-81
2023/11/16 00:02:41;;;;;;;0.77;0.70;;;;;;;7.56;47.20;92750.50;4954700;29;20099;-81
2023/11/16 00:05:11;;;;;;;0.60;0.60;;;;;;;7.54;48.15;92750.75;4947692;29;20111;-81
2023/11/16 00:07:40;;;;;;;0.55;0.55;;;;;;;7.51;47.55;92759.09;4950743;28;20079;-81
2023/11/16 00:10:08;;;;;;;0.73;0.70;;;;;;;7.49;46.86;92748.16;4949327;29;20024;-80
2023/11/16 00:12:34;;;;;;;0.95;0.80;;;;;;;7.48;46.71;92739.56;4957689;29;20043;-81
2023/11/16 00:15:00;;;;;;;0.80;0.80;;;;;;;7.48;46.36;92746.59;4966372;28;20074;-81
2023/11/16 00:17:28;;;;;;;0.70;0.70;;;;;;;7.47;46.93;92742.41;4940722;29;20043;-81
2023/11/16 00:19:57;;;;;;;0.52;0.52;;;;;;;7.47;46.84;92747.63;4953846;29;20515;-80
2023/11/16 00:22:22;;;;;;;0.55;0.55;;;;;;;7.45;46.81;92750.50;4957959;29;20046;-81
2023/11/16 00:24:48;;;;;;;1.30;0.60;;;;;;;7.45;46.77;92739.28;4960639;29;20031;-81
2023/11/16 00:27:14;;;;;;;0.50;0.50;;;;;;;7.45;46.07;92739.28;4959921;29;20036;-81
2023/11/16 00:29:39;;;;;;;0.57;0.57;;;;;;;7.45;46.17;92744.50;4926208;29;20031;-81
2023/11/16 00:32:05;;;;;;;0.60;0.60;;;;;;;7.43;47.61;92754.38;4941431;29;20049;-82
2023/11/16 00:34:31;;;;;;;0.68;0.65;;;;;;;7.41;48.01;92744.25;4952278;29;20027;-81
2023/11/16 00:36:56;;;;;;;0.57;0.57;;;;;;;7.37;48.54;92737.22;4942554;29;20129;-82
2023/11/16 00:39:23;;;;;;;0.60;0.60;;;;;;;7.41;49.25;92743.47;4942089;29;20042;-81
2023/11/16 00:41:49;;;;;;;0.60;0.60;;;;;;;7.40;51.09;92744.50;4959476;29;20114;-81
2023/11/16 00:44:15;;;;;;;0.50;0.50;;;;;;;7.36;51.53;92746.06;4958730;29;20023;-81
2023/11/16 00:46:43;;;;;;;0.55;0.52;;;;;;;7.33;50.24;92742.16;4962399;28;20572;-81
2023/11/16 00:49:09;;;;;;;1.27;0.70;;;;;;;7.31;48.68;92728.59;4941053;29;20035;-81
2023/11/16 00:51:36;;;;;;;0.98;0.80;;;;;;;7.28;49.41;92737.72;4947476;29;20044;-80
2023/11/16 00:54:03;;;;;;;0.50;0.50;;;;;;;7.34;49.68;92737.72;4941008;29;20154;-81
2023/11/16 00:56:29;;;;;;;2.22;0.80;;;;;;;7.32;50.77;92750.22;4938060;29;20515;-81
2023/11/16 00:58:55;;;;;;;0.52;0.52;;;;;;;7.28;50.27;92753.34;4953963;29;20027;-81
2023/11/16 01:01:22;;;;;;;0.63;0.60;;;;;;;7.25;49.51;92746.06;4950780;29;20047;-81
2023/11/16 01:03:49;;;;;;;0.65;0.60;;;;;;;7.27;50.37;92749.19;4959140;29;20082;-81
2023/11/16 01:06:15;;;;;;;1.30;0.70;;;;;;;7.24;50.50;92748.91;4958103;29;20058;-81
2023/11/16 01:08:41;;;;;;;0.85;0.65;;;;;;;7.19;50.13;92735.88;4941503;29;20043;-81
2023/11/16 01:11:08;;;;;;;0.60;0.60;;;;;;;7.23;50.19;92742.94;4941433;29;20078;-81
2023/11/16 01:13:41;;;;;;;0.73;0.60;;;;;;;7.23;50.22;92742.94;4958628;29;20484;-81
2023/11/16 01:16:15;;;;;;;0.45;0.45;;;;;;;7.23;51.15;92740.31;4957359;29;20040;-80
2023/11/16 01:18:50;;;;;;;0.52;0.52;;;;;;;7.24;51.14;92744.47;4941432;29;20131;-81
2023/11/16 01:21:17;;;;;;;0.70;0.57;;;;;;;7.24;49.96;92743.69;4941427;29;20194;-80
2023/11/16 01:23:45;;;;;;;0.90;0.60;;;;;;;7.25;50.44;92735.63;4958194;29;20302;-81
2023/11/16 01:26:15;;;;;;;0.60;0.60;;;;;;;7.23;49.72;92742.94;4953212;29;20170;-82
2023/11/16 01:28:58;;;;;;;0.60;0.60;;;;;;;7.21;50.07;92745.00;4950773;29;20039;-81
2023/11/16 01:31:24;;;;;;;0.40;0.40;;;;;;;7.19;50.32;92751.50;4957993;29;20043;-81
2023/11/16 01:33:51;;;;;;;0.47;0.47;;;;;;;7.19;50.70;92741.88;4944643;29;20027;-80
2023/11/16 01:36:16;;;;;;;0.65;0.65;;;;;;;7.19;49.38;92747.09;4940161;29;20043;-81
2023/11/16 01:38:43;;;;;;;0.60;0.60;;;;;;;7.21;49.74;92736.41;4944806;28;20603;-82
2023/11/16 01:41:09;;;;;;;0.82;0.70;;;;;;;7.20;51.77;92738.22;4954964;29;20042;-82
2023/11/16 01:43:36;;;;;;;0.40;0.40;;;;;;;7.20;51.86;92737.44;4940806;29;20031;-82
2023/11/16 01:46:06;;;;;;;2.38;0.70;;;;;;;7.19;51.08;92730.69;4941214;29;20047;-82
2023/11/16 01:48:42;;;;;;;0.65;0.65;;;;;;;7.19;50.07;92726.25;4940445;29;20066;-81
2023/11/16 01:51:14;;;;;;;0.60;0.60;;;;;;;7.18;50.87;92726.50;4949559;29;20039;-81
2023/11/16 01:53:52;;;;;;;0.50;0.50;;;;;;;7.15;52.93;92730.41;4937231;29;20068;-81
2023/11/16 01:56:19;;;;;;;0.50;0.50;;;;;;;7.18;52.85;92740.31;4955122;29;20282;-81
2023/11/16 01:58:48;;;;;;;0.60;0.60;;;;;;;7.17;50.32;92743.19;4956816;29;20094;-81
2023/11/16 02:01:15;;;;;;;0.73;0.60;;;;;;;7.13;51.76;92736.91;4948042;29;20455;-81
2023/11/16 02:03:43;;;;;;;0.60;0.60;;;;;;;7.14;52.65;92734.06;4953301;29;20052;-81
2023/11/16 02:06:09;;;;;;;0.50;0.50;;;;;;;7.14;52.20;92731.47;4954613;29;20051;-81
2023/11/16 02:08:36;;;;;;;0.60;0.60;;;;;;;7.11;52.62;92729.34;4939737;29;20047;-81
2023/11/16 02:11:02;;;;;;;0.93;0.60;;;;;;;7.07;51.92;92723.91;4959639;29;20043;-80
2023/11/16 02:13:28;;;;;;;0.43;0.43;;;;;;;7.06;50.82;92735.34;4937855;29;20398;-80
2023/11/16 02:15:57;;;;;;;0.38;0.38;;;;;;;7.06;51.46;92739.78;4937842;29;20079;-81
2023/11/16 02:18:25;;;;;;;0.47;0.40;;;;;;;7.05;51.85;92740.81;4952405;29;20470;-80
2023/11/16 02:20:53;;;;;;;0.60;0.60;;;;;;;7.05;51.46;92735.63;4933498;29;20349;-81
2023/11/16 02:23:18;;;;;;;0.60;0.60;;;;;;;7.05;52.10;92730.41;4938715;29;20483;-81
2023/11/16 02:25:49;;;;;;;0.65;0.60;;;;;;;7.01;52.07;92727.53;4956970;29;20098;-81
2023/11/16 02:28:17;;;;;;;0.50;0.50;;;;;;;7.05;51.08;92728.59;4956742;29;20517;-80
2023/11/16 02:30:43;;;;;;;0.50;0.50;;;;;;;7.04;51.95;92726.22;4956831;29;20038;-81
2023/11/16 02:33:09;;;;;;;0.60;0.60;;;;;;;7.04;53.48;92728.81;4957805;29;20055;-80
2023/11/16 02:35:35;;;;;;;0.60;0.60;;;;;;;6.99;53.03;92728.81;4948836;29;20043;-81
2023/11/16 02:38:08;;;;;;;0.60;0.60;;;;;;;6.92;51.96;92717.88;4957828;28;20027;-80
2023/11/16 02:40:34;;;;;;;0.65;0.65;;;;;;;6.92;52.95;92717.88;4952380;29;20139;-81
2023/11/16 02:43:03;;;;;;;0.47;0.47;;;;;;;6.90;53.36;92722.56;4945694;29;20062;-81
2023/11/16 02:45:29;;;;;;;0.50;0.50;;;;;;;6.86;52.81;92717.06;4941117;29;20674;-80
2023/11/16 02:47:55;;;;;;;0.63;0.63;;;;;;;6.79;52.76;92714.72;4955162;28;20043;-81
2023/11/16 02:50:22;;;;;;;0.52;0.52;;;;;;;6.77;53.88;92709.00;4956850;29;20085;-81
2023/11/16 02:52:51;;;;;;;0.63;0.55;;;;;;;6.70;53.83;92700.66;4934008;29;20165;-80
2023/11/16 02:55:20;;;;;;;0.55;0.55;;;;;;;6.65;52.91;92698.81;4953761;29;20039;-81
2023/11/16 02:57:46;;;;;;;0.50;0.50;;;;;;;6.60;52.67;92705.84;4940552;29;20059;-81
2023/11/16 03:00:13;;;;;;;0.40;0.40;;;;;;;6.59;53.35;92718.03;4940225;29;20027;-81
2023/11/16 03:02:42;;;;;;;0.50;0.50;;;;;;;6.50;53.49;92711.00;4944070;29;20078;-80
2023/11/16 03:05:12;;;;;;;0.52;0.52;;;;;;;6.51;53.30;92720.34;4961194;29;20047;-81
2023/11/16 03:07:38;;;;;;;0.60;0.60;;;;;;;6.42;53.61;92723.47;4958354;29;20531;-81
2023/11/16 03:10:07;;;;;;;0.63;0.55;;;;;;;6.35;53.32;92722.91;4958004;29;20031;-80
2023/11/16 03:12:33;;;;;;;0.40;0.40;;;;;;;6.31;53.24;92719.25;4957164;29;20035;-81
2023/11/16 03:14:59;;;;;;;0.60;0.60;;;;;;;6.24;54.08;92716.09;4940293;29;20055;-81
2023/11/16 03:17:25;;;;;;;0.50;0.50;;;;;;;6.18;53.32;92717.09;4956638;29;20033;-80
2023/11/16 03:19:50;;;;;;;1.50;0.60;;;;;;;6.12;52.86;92718.88;4933688;29;20039;-81
2023/11/16 03:22:16;;;;;;;0.50;0.50;;;;;;;6.06;54.44;92712.13;4958171;29;20366;-81
2023/11/16 03:24:42;;;;;;;0.57;0.55;;;;;;;6.01;54.04;92709.47;4948908;29;20023;-82
2023/11/16 03:27:09;;;;;;;0.70;0.70;;;;;;;5.95;53.50;92715.69;4955625;29;20554;-80
2023/11/16 03:29:37;;;;;;;0.45;0.45;;;;;;;5.90;53.56;92705.22;4943557;29;20049;-82
2023/11/16 03:32:05;;;;;;;0.77;0.63;;;;;;;5.86;53.75;92709.38;4944566;29;20111;-80
2023/11/16 03:34:31;;;;;;;0.50;0.50;;;;;;;5.82;53.54;92698.69;4943469;29;20036;-81
2023/11/16 03:36:57;;;;;;;0.52;0.52;;;;;;;5.79;53.18;92697.38;4958632;29;20438;-81
2023/11/16 03:39:22;;;;;;;0.60;0.60;;;;;;;5.75;52.79;92695.53;4952060;29;20042;-81
2023/11/16 03:41:48;;;;;;;0.60;0.60;;;;;;;5.73;52.56;92695.78;4955450;29;20047;-80
2023/11/16 03:44:14;;;;;;;0.70;0.70;;;;;;;5.71;52.08;92686.69;4960979;28;20462;-81
2023/11/16 03:46:40;;;;;;;0.50;0.50;;;;;;;5.68;52.58;92697.59;4943298;29;20178;-81
2023/11/16 03:49:06;;;;;;;0.75;0.75;;;;;;;5.63;52.23;92691.31;4941763;29;20050;-81
2023/11/16 03:51:31;;;;;;;0.60;0.60;;;;;;;5.59;52.24;92689.47;4957691;29;20036;-80
2023/11/16 03:53:57;;;;;;;0.45;0.45;;;;;;;5.55;52.67;92698.78;4949614;29;20062;-81
2023/11/16 03:56:23;;;;;;;0.50;0.50;;;;;;;5.43;52.92;92689.38;4958272;29;20103;-81
2023/11/16 03:58:49;;;;;;;0.75;0.60;;;;;;;5.42;54.03;92690.38;4952331;29;20035;-81
2023/11/16 04:01:15;;;;;;;0.63;0.60;;;;;;;5.38;55.72;92701.50;4935483;29;20047;-82
2023/11/16 04:03:42;;;;;;;0.60;0.50;;;;;;;5.30;55.79;92702.75;4960086;28;20283;-80
2023/11/16 04:06:17;;;;;;;0.50;0.50;;;;;;;5.27;56.30;92702.47;4955727;29;20043;-80
2023/11/16 04:08:43;;;;;;;0.55;0.55;;;;;;;5.29;54.95;92695.22;4937971;29;20590;-79
2023/11/16 04:11:10;;;;;;;0.65;0.50;;;;;;;5.29;55.54;92705.59;4954469;29;20127;-80
2023/11/16 04:13:36;;;;;;;0.68;0.68;;;;;;;5.25;56.41;92700.13;4960140;29;20050;-80
2023/11/16 04:16:02;;;;;;;0.50;0.50;;;;;;;5.23;56.13;92707.38;4953268;29;20047;-80
2023/11/16 04:18:27;;;;;;;0.63;0.45;;;;;;;5.22;55.83;92706.59;4942379;29;20459;-80
2023/11/16 04:20:53;;;;;;;0.43;0.43;;;;;;;5.23;54.61;92697.00;4959037;29;20058;-80
2023/11/16 04:23:19;;;;;;;0.50;0.50;;;;;;;5.25;54.43;92700.13;4941366;29;20031;-80
2023/11/16 04:25:45;;;;;;;1.55;0.50;;;;;;;5.28;54.85;92696.25;4940506;29;20062;-81
2023/11/16 04:28:13;;;;;;;0.57;0.57;;;;;;;5.27;54.76;92699.88;4959997;28;20023;-80
2023/11/16 04:30:38;;;;;;;0.50;0.50;;;;;;;5.25;54.83;92710.50;4953845;29;20043;-80
2023/11/16 04:33:04;;;;;;;0.85;0.82;;;;;;;5.22;55.91;92705.81;4959859;29;20047;-81
2023/11/16 04:35:30;;;;;;;0.70;0.68;;;;;;;5.19;55.87;92704.50;4952108;29;20102;-80
2023/11/16 04:37:58;;;;;;;0.55;0.55;;;;;;;5.15;55.82;92693.03;4959148;29;20043;-79
2023/11/16 04:40:24;;;;;;;0.60;0.60;;;;;;;5.16;55.58;92702.41;4951716;29;20063;-81
2023/11/16 04:42:50;;;;;;;0.60;0.60;;;;;;;5.14;55.95;92698.47;4951769;29;20415;-80
2023/11/16 04:45:18;;;;;;;0.60;0.60;;;;;;;5.11;55.86;92706.75;4959124;29;20024;-80
2023/11/16 04:47:45;;;;;;;0.60;0.60;;;;;;;5.08;55.38;92705.44;4958945;29;20043;-80
2023/11/16 04:50:13;;;;;;;0.40;0.40;;;;;;;5.05;56.02;92703.34;4958853;29;20039;-80
2023/11/16 04:52:42;;;;;;;0.45;0.45;;;;;;;4.98;55.73;92692.38;4941957;29;20053;-79
2023/11/16 04:55:08;;;;;;;0.47;0.47;;;;;;;4.99;55.91;92696.53;4952054;29;20039;-79
2023/11/16 04:57:34;;;;;;;0.88;0.50;;;;;;;4.93;56.67;92682.75;4958638;28;20126;-79
2023/11/16 05:00:00;;;;;;;0.60;0.60;;;;;;;4.94;57.27;92683.53;4951944;29;20039;-81
2023/11/16 05:02:26;;;;;;;0.40;0.40;;;;;;;4.89;57.53;92686.84;4941886;29;20418;-80
2023/11/16 05:04:53;;;;;;;0.70;0.63;;;;;;;4.89;57.37;92681.66;4950672;29;20118;-80
2023/11/16 05:07:19;;;;;;;0.50;0.50;;;;;;;4.89;56.97;92678.28;4958962;29;20047;-80
2023/11/16 05:09:45;;;;;;;0.77;0.60;;;;;;;4.88;56.98;92676.72;4957339;29;20443;-80
2023/11/16 05:12:11;;;;;;;0.50;0.50;;;;;;;4.88;57.07;92684.50;4951102;29;20028;-80
2023/11/16 05:14:37;;;;;;;1.85;0.52;;;;;;;4.85;59.34;92677.22;4956498;28;20043;-79
2023/11/16 05:17:05;;;;;;;0.52;0.52;;;;;;;4.80;58.37;92678.72;4949133;29;20389;-80
2023/11/16 05:19:31;;;;;;;0.57;0.57;;;;;;;4.74;58.30;92669.31;4949803;29;20027;-80
2023/11/16 05:21:57;;;;;;;0.45;0.45;;;;;;;4.78;58.16;92683.38;4939134;29;20420;-80
2023/11/16 05:24:24;;;;;;;0.60;0.60;;;;;;;4.75;58.11;92670.91;4949342;29;20046;-80
2023/11/16 05:26:50;;;;;;;0.60;0.60;;;;;;;4.76;57.86;92682.84;4953583;29;20046;-80
2023/11/16 05:29:15;;;;;;;0.40;0.40;;;;;;;4.74;57.98;92663.38;4948815;29;20404;-79
2023/11/16 05:31:41;;;;;;;0.50;0.50;;;;;;;4.76;58.16;92671.69;4947666;29;20105;-80
2023/11/16 05:34:08;;;;;;;0.77;0.70;;;;;;;4.77;58.03;92671.44;4954850;29;20074;-80
2023/11/16 05:36:36;;;;;;;0.68;0.65;;;;;;;4.78;58.13;92674.81;4959295;29;20054;-81
2023/11/16 05:39:03;;;;;;;0.60;0.60;;;;;;;4.79;58.53;92690.13;4955186;29;20034;-80
2023/11/16 05:41:29;;;;;;;0.50;0.50;;;;;;;4.80;58.72;92672.75;4953541;29;20138;-79
2023/11/16 05:43:55;;;;;;;0.47;0.47;;;;;;;4.79;59.02;92676.38;4956093;29;20070;-85
2023/11/16 05:46:21;;;;;;;0.65;0.65;;;;;;;4.78;59.13;92674.81;4936971;29;20043;-82
2023/11/16 05:48:47;;;;;;;0.85;0.70;;;;;;;4.73;58.63;92670.38;4951323;28;20043;-83
2023/11/16 05:51:13;;;;;;;0.70;0.60;;;;;;;4.75;58.70;92681.28;4953518;29;20542;-82
2023/11/16 05:53:41;;;;;;;0.63;0.63;;;;;;;4.74;58.31;92679.69;4953041;29;20042;-82
2023/11/16 05:56:07;;;;;;;0.93;0.70;;;;;;;4.74;58.47;92687.47;4952412;29;20063;-80
2023/11/16 05:58:32;;;;;;;0.60;0.50;;;;;;;4.74;58.69;92682.28;4929593;29;20386;-81
2023/11/16 06:00:58;;;;;;;0.55;0.55;;;;;;;4.75;59.32;92683.88;4940633;29;20126;-81
2023/11/16 06:03:27;;;;;;;0.50;0.50;;;;;;;4.75;59.99;92686.47;4954224;29;20020;-80
2023/11/16 06:05:54;;;;;;;0.80;0.70;;;;;;;4.68;59.51;92670.31;4954155;29;20149;-80
2023/11/16 06:08:20;;;;;;;0.70;0.60;;;;;;;4.71;60.05;92675.00;4952086;28;20368;-79
2023/11/16 06:10:46;;;;;;;0.55;0.55;;;;;;;4.69;60.31;92660.72;4953493;29;20414;-80
2023/11/16 06:13:11;;;;;;;0.52;0.52;;;;;;;4.71;59.44;92663.88;4936708;29;20422;-80
2023/11/16 06:15:37;;;;;;;0.40;0.40;;;;;;;4.67;60.06;92665.38;4953839;29;20353;-81
2023/11/16 06:18:03;;;;;;;0.75;0.70;;;;;;;4.71;59.68;92664.63;4936332;29;20040;-80
2023/11/16 06:20:29;;;;;;;0.88;0.80;;;;;;;4.72;59.19;92661.00;4954849;29;20043;-79
2023/11/16 06:22:55;;;;;;;0.68;0.60;;;;;;;4.71;58.36;92659.47;4947592;29;20054;-81
2023/11/16 06:25:21;;;;;;;1.42;0.70;;;;;;;4.72;59.00;92660.22;4943115;28;20086;-82
2023/11/16 06:27:48;;;;;;;0.60;0.60;;;;;;;4.70;59.09;92650.09;4951069;29;20155;-79
2023/11/16 06:30:15;;;;;;;0.50;0.50;;;;;;;4.71;59.60;92649.09;4949665;29;20027;-78
2023/11/16 06:32:42;;;;;;;0.60;0.60;;;;;;;4.74;59.38;92653.78;4956715;29;20046;-79
2023/11/16 06:35:10;;;;;;;0.50;0.50;;;;;;;4.69;59.58;92658.91;4957155;29;20138;-80
2023/11/16 06:37:36;;;;;;;0.70;0.70;;;;;;;4.70;59.68;92654.50;4949878;29;20037;-80
2023/11/16 06:40:02;;;;;;;0.50;0.50;;;;;;;4.75;59.81;92655.34;4957794;29;20114;-79
2023/11/16 06:42:28;;;;;;;0.50;0.50;;;;;;;4.77;59.67;92653.28;4956846;29;20110;-80
2023/11/16 06:44:54;;;;;;;0.63;0.63;;;;;;;5.20;58.45;92651.56;4959357;29;20027;-80
2023/11/16 06:47:19;;;;;;;0.60;0.60;;;;;;;6.29;57.69;92655.56;4965386;28;20298;-80
2023/11/16 06:49:48;;;;;;;0.57;0.57;;;;;;;7.43;54.58;92655.41;4964640;29;20043;-80
2023/11/16 06:52:15;;;;;;;0.70;0.70;;;;;;;8.55;48.04;92662.94;4965529;29;20050;-80
2023/11/16 06:54:42;;;;;;;0.60;0.60;;;;;;;9.59;44.62;92659.38;4964650;29;20031;-80
2023/11/16 06:57:12;;;;;;;0.68;0.60;;;;;;;10.51;42.16;92656.84;4962335;29;20031;-81
2023/11/16 06:59:41;;;;;;;0.70;0.70;;;;;;;11.34;39.23;92658.03;4934966;29;20048;-81
2023/11/16 07:02:07;;;;;;;0.77;0.77;;;;;;;12.02;37.32;92666.38;4945646;29;20570;-81
2023/11/16 07:04:35;;;;;;;0.77;0.77;;;;;;;12.79;36.06;92663.09;4955979;29;20037;-81
2023/11/16 07:07:02;;;;;;;0.88;0.60;;;;;;;12.39;35.22;92659.44;4965858;28;20102;-81
2023/11/16 07:09:27;;;;;;;0.60;0.60;;;;;;;11.65;36.63;92662.81;4970143;28;20419;-81
2023/11/16 07:11:53;;;;;;;0.70;0.70;;;;;;;12.08;36.58;92666.00;4965137;29;20112;-80
2023/11/16 07:14:19;;;;;;;0.88;0.77;;;;;;;12.79;35.69;92667.53;4948053;29;20031;-81
2023/11/16 07:16:46;;;;;;;0.73;0.70;;;;;;;13.71;34.83;92660.22;4965519;29;20035;-80
2023/11/16 07:19:16;;;;;;;0.77;0.77;;;;;;;14.73;32.42;92656.81;4947865;29;20090;-82
2023/11/16 07:21:42;;;;;;;0.63;0.50;;;;;;;15.48;31.65;92669.88;4965329;29;20114;-81
2023/11/16 07:24:10;;;;;;;2.05;0.60;;;;;;;16.02;30.51;92659.72;4966637;29;20043;-82
2023/11/16 07:26:36;;;;;;;0.70;0.70;;;;;;;16.90;29.25;92658.28;4967589;28;20527;-82
2023/11/16 07:29:02;;;;;;;1.35;1.10;;;;;;;17.92;27.55;92653.59;4950221;29;20348;-82
2023/11/16 07:31:28;;;;;;;0.82;0.80;;;;;;;18.15;26.27;92666.44;4947913;29;20112;-83
2023/11/16 07:33:57;;;;;;;0.50;0.50;;;;;;;18.75;26.28;92683.50;4966298;29;20557;-83
2023/11/16 07:36:27;;;;;;;0.50;0.50;;;;;;;19.51;25.40;92689.19;4954339;29;20044;-82
2023/11/16 07:38:54;;;;;;;1.00;0.60;;;;;;;19.13;24.46;92682.41;4974223;28;20058;-82
2023/11/16 07:41:26;;;;;;;0.40;0.40;;;;;;;19.01;25.24;92685.09;4946649;29;20237;-81
2023/11/16 07:43:52;;;;;;;0.88;0.60;;;;;;;19.53;24.35;92668.41;4946078;29;20034;-82
2023/11/16 07:46:19;;;;;;;0.50;0.50;;;;;;;19.69;24.26;92671.13;4948047;28;20130;-84
2023/11/16 07:48:45;;;;;;;0.65;0.65;;;;;;;20.01;23.58;92665.91;4961347;29;20374;-84
2023/11/16 07:51:12;;;;;;;0.60;0.60;;;;;;;20.00;23.70;92673.09;4944862;29;20420;-83
2023/11/16 07:53:50;;;;;;;0.40;0.40;;;;;;;18.82;23.13;92673.16;4948741;29;20442;-82
2023/11/16 07:56:17;;;;;;;0.22;0.22;;;;;;;17.05;25.29;92670.94;4961260;29;20114;-82
2023/11/16 07:58:51;;;;;;;1.42;0.70;;;;;;;16.38;27.87;92671.72;4972632;28;20034;-84
2023/11/16 08:02:02;;;;;;;2.88;1.15;;;;;;;15.67;28.28;92683.53;4958586;28;20032;-85
2023/11/16 08:04:04;;;;;;;0.75;0.60;;;;;;;15.91;27.44;92672.50;4938259;29;20530;-83
2023/11/16 08:06:31;;;;;;;0.50;0.50;;;;;;;16.23;27.21;92667.75;4966214;29;20051;-84
2023/11/16 08:08:56;;;;;;;0.45;0.45;;;;;;;17.79;26.29;92666.00;4958531;29;20125;-84
2023/11/16 08:11:22;;;;;;;0.40;0.40;;;;;;;18.70;24.68;92670.47;4967264;29;20046;-83
2023/11/16 08:13:48;;;;;;;0.47;0.47;;;;;;;18.54;25.36;92666.94;4967617;29;20070;-83
2023/11/16 08:16:15;;;;;;;1.33;0.70;;;;;;;18.54;28.02;92673.03;4967327;29;20062;-84
2023/11/16 08:18:44;;;;;;;0.90;0.60;;;;;;;19.52;26.96;92672.13;4965774;28;20027;-85
2023/11/16 08:21:11;;;;;;;2.70;0.75;;;;;;;20.09;25.88;92663.09;4965084;29;20031;-85
2023/11/16 08:23:39;;;;;;;1.60;0.70;;;;;;;19.48;25.67;92665.97;4962616;29;20467;-79
2023/11/16 08:26:12;;;;;;;0.80;0.70;;;;;;;19.87;26.70;92667.06;4963539;29;20058;-82
2023/11/16 08:28:39;;;;;;;1.30;0.90;;;;;;;20.83;26.69;92661.81;4954467;29;20045;-82
2023/11/16 08:31:06;;;;;;;1.27;0.60;;;;;;;19.99;25.54;92666.22;4958886;29;20034;-82
2023/11/16 08:33:33;;;;;;;1.98;0.70;;;;;;;20.02;26.02;92668.22;4960350;29;20044;-82
2023/11/16 08:36:00;;;;;;;0.90;0.70;;;;;;;19.43;26.69;92668.84;4958135;29;20035;-82
2023/11/16 08:38:27;;;;;;;0.60;0.60;;;;;;;17.92;29.20;92674.78;4955081;29;20035;-82
2023/11/16 08:41:00;;;;;;;0.73;0.60;;;;;;;16.56;30.74;92675.06;4963455;29;20030;-82
2023/11/16 08:43:32;;;;;;;1.10;0.70;;;;;;;15.34;32.69;92675.31;4943907;29;20080;-81
2023/11/16 08:45:57;;;;;;;;;;;;;;;14.81;34.80;92674.47;4938571;29;20040;-80
2023/11/16 08:48:32;;;;;;;1.17;0.90;;;;;;;14.14;35.46;92672.88;4953619;29;20059;-81
2023/11/16 08:51:06;;;;;;;1.20;0.77;;;;;;;13.73;35.83;92674.66;4947479;29;20039;-81
2023/11/16 08:53:35;;;;;;;1.10;0.85;;;;;;;13.49;38.08;92672.34;4962119;29;20111;-81
2023/11/16 08:56:04;;;;;;;1.88;1.00;;;;;;;12.86;38.36;92683.69;4945550;29;20031;-81
2023/11/16 08:58:31;;;;;;;1.48;0.88;;;;;;;12.52;40.81;92684.09;4960568;28;20048;-80
2023/11/16 09:01:02;;;;;;;1.10;0.90;;;;;;;12.34;41.04;92676.06;4949583;29;20031;-80
2023/11/16 09:03:33;;;;;;;2.00;1.08;;;;;;;12.03;46.13;92678.47;4944375;29;20032;-81
2023/11/16 09:06:06;;;;;;;1.60;1.05;;;;;;;12.14;41.65;92671.19;4954144;29;20047;-81
2023/11/16 09:08:37;;;;;;;1.35;1.00;;;;;;;12.10;41.25;92673.59;4943978;29;20464;-80
2023/11/16 09:11:07;;;;;;;0.88;0.85;;;;;;;11.94;40.98;92670.47;4962349;29;20066;-80
2023/11/16 09:13:33;;;;;;;1.23;1.00;;;;;;;11.81;46.61;92674.59;4944268;29;20466;-81
2023/11/16 09:15:58;;;;;;;1.30;0.90;;;;;;;11.49;46.41;92670.16;4929616;29;20103;-80
2023/11/16 09:18:25;;;;;;;1.52;1.00;;;;;;;11.11;47.52;92683.28;4960816;28;20035;-81
2023/11/16 09:20:51;;;;;;;0.70;0.70;;;;;;;10.76;47.34;92674.88;4957644;29;20172;-80
2023/11/16 09:23:17;;;;;;;0.98;0.80;;;;;;;10.63;47.89;92671.09;4950339;29;20032;-80
2023/11/16 09:25:45;;;;;;;3.20;0.77;;;;;;;10.51;48.51;92677.78;4954622;29;20159;-80
2023/11/16 09:28:13;;;;;;;1.77;1.05;;;;;;;10.57;50.03;92674.06;4953728;28;20497;-80
2023/11/16 09:30:40;;;;;;;2.45;0.90;;;;;;;10.62;50.06;92674.75;4943885;29;20062;-80
2023/11/16 09:33:09;;;;;;;1.67;0.90;;;;;;;10.59;49.25;92667.47;4952564;29;20043;-80
2023/11/16 09:35:40;;;;;;;1.27;1.00;;;;;;;10.60;50.57;92669.06;4958437;29;20039;-80
2023/11/16 09:38:09;;;;;;;1.13;0.90;;;;;;;10.67;48.84;92668.69;4950130;29;20044;-79
2023/11/16 09:40:39;;;;;;;1.00;0.90;;;;;;;10.84;51.13;92681.31;4950573;29;20036;-80
2023/11/16 09:43:20;;;;;;;1.35;1.00;;;;;;;11.04;51.33;92678.41;4944271;29;20046;-80
2023/11/16 09:45:47;;;;;;;1.05;0.80;;;;;;;11.32;48.17;92691.63;4954133;29;20483;-79
2023/11/16 09:48:17;;;;;;;0.98;0.73;;;;;;;11.57;45.54;92677.38;4944106;29;20035;-80
2023/11/16 09:50:48;;;;;;;0.80;0.80;;;;;;;11.77;43.06;92689.34;4961549;29;20054;-80
2023/11/16 09:53:18;;;;;;;1.00;0.80;;;;;;;11.62;49.79;92695.63;4960646;29;20031;-79
2023/11/16 09:55:50;;;;;;;1.80;0.95;;;;;;;11.64;47.09;92688.25;4948002;29;20046;-79
2023/11/16 09:58:23;;;;;;;2.83;0.90;;;;;;;11.83;43.88;92690.06;4942201;29;20055;-79
2023/11/16 10:00:57;;;;;;;0.82;0.77;;;;;;;12.02;43.08;92682.94;4954615;29;20086;-80
2023/11/16 10:03:30;;;;;;;1.25;1.00;;;;;;;12.08;43.78;92675.75;4958453;29;20033;-80
2023/11/16 10:05:57;;;;;;;0.88;0.88;;;;;;;12.35;43.46;92679.44;4960561;29;20059;-80
2023/11/16 10:08:27;;;;;;;0.85;0.75;;;;;;;12.57;43.74;92687.41;4960484;29;20039;-80
2023/11/16 10:10:57;;;;;;;1.77;1.02;;;;;;;12.90;43.60;92679.38;4958257;29;20093;-80
2023/11/16 10:13:27;;;;;;;1.10;0.90;;;;;;;12.80;45.11;92663.84;4959625;29;20023;-79
2023/11/16 10:15:54;;;;;;;1.48;0.80;;;;;;;12.66;42.97;92669.91;4959741;29;20503;-79
2023/11/16 10:18:20;;;;;;;1.60;1.00;;;;;;;12.21;44.06;92690.72;4953073;29;20040;-80
2023/11/16 10:20:46;;;;;;;2.95;1.00;;;;;;;12.06;45.27;92688.38;4949012;29;20032;-80
2023/11/16 10:23:12;;;;;;;1.10;0.80;;;;;;;11.77;42.70;92686.72;4961063;29;20074;-80
2023/11/16 10:25:39;;;;;;;0.90;0.80;;;;;;;11.78;43.70;92682.28;4952092;28;20036;-80
2023/11/16 10:28:15;;;;;;;0.90;0.90;;;;;;;11.67;44.29;92669.31;4956842;29;20050;-80
2023/11/16 10:30:46;;;;;;;3.42;1.05;;;;;;;11.84;44.65;92665.38;4959565;28;20035;-80
2023/11/16 10:33:16;;;;;;;1.43;0.90;;;;;;;12.23;45.18;92657.09;4960543;29;20055;-79
2023/11/16 10:35:52;;;;;;;1.00;0.90;;;;;;;12.53;43.56;92654.94;4960798;29;20046;-80
2023/11/16 10:38:23;;;;;;;1.70;1.08;;;;;;;12.78;41.90;92653.63;4959409;29;20051;-80
2023/11/16 10:40:54;;;;;;;0.95;0.80;;;;;;;12.72;40.78;92649.53;4950823;29;20054;-80
2023/11/16 10:43:25;;;;;;;0.95;0.80;;;;;;;12.82;38.99;92649.34;4933352;29;20039;-80
2023/11/16 10:45:56;;;;;;;3.25;1.10;;;;;;;12.96;44.93;92638.78;4957921;29;20039;-79
2023/11/16 10:48:23;;;;;;;1.13;0.90;;;;;;;12.71;37.74;92619.88;4937855;29;20392;-79
2023/11/16 10:50:50;;;;;;;1.23;0.80;;;;;;;12.59;35.40;92616.22;4957479;29;20031;-79
2023/11/16 10:53:17;;;;;;;0.70;0.70;;;;;;;12.86;34.77;92615.38;4942645;29;20027;-80
2023/11/16 10:55:46;;;;;;;0.80;0.77;;;;;;;12.97;35.05;92614.09;4940842;29;20099;-76
2023/11/16 10:58:13;;;;;;;1.08;0.80;;;;;;;12.91;35.88;92612.66;4958979;28;20118;-80
2023/11/16 11:00:43;;;;;;;0.70;0.70;;;;;;;12.87;36.68;92599.31;4959784;29;20050;-80
2023/11/16 11:03:10;;;;;;;1.10;0.73;;;;;;;12.91;36.58;92607.38;4958233;29;20020;-80
2023/11/16 11:05:42;;;;;;;1.13;1.00;;;;;;;13.15;38.96;92601.06;4951261;29;20051;-79
2023/11/16 11:08:09;;;;;;;1.17;0.85;;;;;;;13.09;36.14;92593.31;4958802;29;20122;-80
2023/11/16 11:10:38;;;;;;;0.80;0.80;;;;;;;12.95;37.67;92592.59;4958956;28;20074;-80
2023/11/16 11:13:06;;;;;;;1.65;1.10;;;;;;;12.74;39.98;92588.84;4959907;28;20063;-80
2023/11/16 11:15:38;;;;;;;4.05;1.02;;;;;;;12.42;43.30;92585.31;4954989;29;20530;-81
2023/11/16 11:18:05;;;;;;;3.50;1.00;;;;;;;11.99;45.65;92562.03;4946658;29;20043;-81
2023/11/16 11:20:42;;;;;;;1.00;0.80;;;;;;;12.14;42.69;92567.00;4964308;29;20039;-81
2023/11/16 11:23:16;;;;;;;0.85;0.80;;;;;;;12.37;42.29;92572.31;4962877;28;20035;-80
2023/11/16 11:25:42;;;;;;;1.38;0.93;;;;;;;12.40;42.25;92563.84;4945929;29;20090;-81
2023/11/16 11:28:11;;;;;;;2.30;1.30;;;;;;;12.20;44.63;92557.16;4955367;29;20043;-80
2023/11/16 11:30:48;;;;;;;1.63;1.00;;;;;;;12.10;38.98;92542.41;4938181;29;20055;-80
2023/11/16 11:33:24;;;;;;;1.52;0.98;;;;;;;11.92;40.81;92538.06;4962235;29;20053;-81
2023/11/16 11:35:53;;;;;;;1.30;1.02;;;;;;;11.79;42.60;92521.97;4944784;29;20058;-80
2023/11/16 11:38:24;;;;;;;1.30;1.00;;;;;;;11.56;46.47;92522.97;4961365;29;20131;-79
2023/11/16 11:41:06;;;;;;;1.10;0.88;;;;;;;11.48;42.81;92523.63;4951809;29;20040;-80